SCC: Mid-Ohio practice four times

Pos Num Class Team Time Gap To 1st Speed --- --- ----- ------------------------------ ---------- ------- ------- ------- 1. 99 GS Anchor Racing 1:44.937 77.464 2. 69...

Pos Num Class Team                                 Time     Gap  To 1st   Speed
--- --- ----- ------------------------------ ---------- ------- ------- -------
 1.  99 GS    Anchor Racing                    1:44.937                  77.464
 2.  69 GS    Krohn Racing/TRG                 1:46.239   1.302   1.302  76.514
 3.  93 GS    Anchor Racing                    1:47.279   1.040   2.342  75.773
 4.  05 GS    Multimatic Motorsports           1:47.683   0.404   2.746  75.488
 5.  90 GS    Automatic Racing                 1:47.705   0.022   2.768  75.473
 6.  13 GS    Unitech Racing                   1:48.073   0.368   3.136  75.216
 7.  09 GS    Automatic Racing                 1:48.155   0.082   3.218  75.159
 8.  91 GS    Fiorano Racing                   1:48.569   0.414   3.632  74.872
 9.  07 GS    Powell Motorsport                1:48.971   0.402   4.034  74.596
10.  96 GS    Turner Motorsport                1:49.103   0.132   4.166  74.506
11.  21 GS    Bodymotion Racing                1:49.247   0.144   4.310  74.408
12.  28 GS    Race Prep Motorsports            1:49.592   0.345   4.655  74.173
13.  55 GS    Multimatic Motorsports           1:49.663   0.071   4.726  74.125
14.  59 GS    Rehagen Racing                   1:50.248   0.585   5.311  73.732
15.  16 GS    Zoom Motorsports                 1:50.762   0.514   5.825  73.390
16.  17 GS    Doncaster Racing                 1:50.819   0.057   5.882  73.352
17.  43 GS    Team Sahlen                      1:51.029   0.210   6.092  73.213
18.   5 GS    Blackforest Motorsports          1:51.352   0.323   6.415  73.001
19.  97 ST    Turner Motorsports               1:51.820   0.468   6.883  72.695
20.  62 ST    DEI Racers Group                 1:52.290   0.470   7.353  72.391
21.  85 GS    Knobel Racing                    1:52.786   0.496   7.849  72.073
22.  83 GS    BGB Motorsports                  1:52.968   0.182   8.031  71.957
23.  72 ST    Anchor Racing                    1:53.105   0.137   8.168  71.870
24.  58 GS    Rehagen Racing                   1:53.139   0.034   8.202  71.848
25.  12 ST    TC Kline Racing                  1:53.229   0.090   8.292  71.791
26.  06 ST    Compass360/Racing                1:53.348   0.119   8.411  71.715
27.  75 ST    Kensai Racing                    1:53.368   0.020   8.431  71.703
28.  40 GS    Team Sahlen                      1:53.589   0.221   8.652  71.563
29.  38 GS    BGB Motorsports                  1:53.754   0.165   8.817  71.459
30.  02 ST    Nuzzo Motorsports                1:53.997   0.243   9.060  71.307
31.  49 ST    Southpaw Racing                  1:54.367   0.370   9.430  71.076
32.  74 ST    Kensai Racing                    1:54.540   0.173   9.603  70.969
33.  68 ST    SpeedSource                      1:54.715   0.175   9.778  70.861
34.  94 ST    Radial Motorsports               1:55.475   0.760  10.538  70.394
35.  36 ST    Compass360/Racing                1:55.552   0.077  10.615  70.348
36.  89 GS    LNS Motorsports                  1:55.735   0.183  10.798  70.236
37.  20 ST    Nuzzo Motorsports                1:55.820   0.085  10.883  70.185
38.  71 ST    TC Kline Racing                  1:56.018   0.198  11.081  70.065
39.   6 GS    Zoom Motorsports                 1:57.713   1.695  12.776  69.056
40.  32 ST    Franklin American                1:58.332   0.619  13.395  68.695
41.   2 ST    2                                1:59.958   1.626  15.021  67.764
42.  50 ST    Southpaw Racing                  1:59.960   0.002  15.023  67.763
43.  47 GS    TF Racing                        2:00.626   0.666  15.689  67.388
44.  88 GS    Knobel Racing                    2:24.573  23.947  39.636  56.226
45.   0 ST    0                                 No Time
46.  00 ST    Georgian Bay Motorsports          No Time
47.  01 ST    Georgian Bay Motorsports          No Time
48.   7 GS    Power Racing Team                 No Time
49.  10 GS    Champion Motorsports              No Time
50.  11 GS    Powell Motorsport                 No Time
51.  18 GS    Race Prep Motorsports             No Time
52.  27 ST    Bill Fenton Motorsports           No Time
53.  29 ST    Bill Fenton Motorsports           No Time
54.  35 GS    Schuitemaker Motorsports          No Time
55.  39 ST    Matt Connolly Motorsports         No Time
56.  46 ST    Franklin American Mortgage        No Time
57.  51 ST    Fountain Motorsports              No Time
58.  57 ST    Baglieracing                      No Time
59.  60 GS    Finlay Motorsports                No Time
60.  63 GS    Team RPM                          No Time
61.  64 ST    Matt Connolly Motorsports         No Time
62.  65 ST    SpeedSource                       No Time
63.  66 ST    SpeedSource                       No Time
64.  67 ST    SpeedSource                       No Time
65.  70 ST    SpeedSource                       No Time
66.  87 GS    87                                No Time
67.  92 GS    Anchor Racing                     No Time
68.  95 ST    Turner Motorsports                No Time
69.  98 ST    Stewart Motorsports               No Time

Be part of something big

Write a comment
Show comments
About this article
Series Grand-Am
Drivers Matt Connolly , Bill Fenton
Teams Krohn Racing , Rehagen Racing , Turner Motorsport , Team Sahlen , Multimatic Motorsports , Automatic Racing , Bodymotion Racing , SpeedSource